APG769 RPLL-RPVA
Flight info
| Callsign | APG769 |
|---|---|
| Flight time | 0h 56m |
| Altitude | 35000 |
| Route | IPATA2R IPATA B462 ARREX ARREX2R |
| Aircraft | A20N/M-SDE2E3FGHIRWXY/LB1 |
Departure
| Time | 2026-04-21 15:13 |
|---|---|
| Airport | Ninoy Aquino International Airport (RPLL) |
Arrival
| Time | 2026-04-21 16:10 |
|---|---|
| Airport | Daniel Z. Romualdez Airport (RPVA) |
| Time | Latitude | Longitude | Altitude | Speed | Heading |
|---|---|---|---|---|---|
| 2026-04-21 14:12 | 14.50881 | 121.01370 | 68 ft | 0 kts | 330° |
| 2026-04-21 14:58 | 14.50878 | 121.01372 | 68 ft | 4 kts | 330° |
| 2026-04-21 14:58 | 14.50855 | 121.01386 | 61 ft | 4 kts | 329° |
| 2026-04-21 14:58 | 14.50832 | 121.01400 | 65 ft | 4 kts | 324° |
| 2026-04-21 14:58 | 14.50817 | 121.01414 | 60 ft | 2 kts | 298° |
| 2026-04-21 14:59 | 14.50814 | 121.01427 | 61 ft | 3 kts | 250° |
| 2026-04-21 14:59 | 14.50822 | 121.01444 | 62 ft | 3 kts | 239° |
| 2026-04-21 14:59 | 14.50822 | 121.01445 | 62 ft | 0 kts | 241° |
| 2026-04-21 15:06 | 14.50821 | 121.01442 | 68 ft | 0 kts | 241° |
| 2026-04-21 15:06 | 14.50809 | 121.01420 | 62 ft | 12 kts | 241° |
| 2026-04-21 15:06 | 14.50753 | 121.01326 | 65 ft | 14 kts | 221° |
| 2026-04-21 15:06 | 14.50664 | 121.01308 | 66 ft | 14 kts | 226° |
| 2026-04-21 15:07 | 14.50609 | 121.01213 | 63 ft | 17 kts | 242° |
| 2026-04-21 15:07 | 14.50546 | 121.01099 | 66 ft | 20 kts | 240° |
| 2026-04-21 15:07 | 14.50474 | 121.00970 | 63 ft | 22 kts | 240° |
| 2026-04-21 15:07 | 14.50394 | 121.00828 | 62 ft | 24 kts | 239° |
| 2026-04-21 15:08 | 14.50308 | 121.00673 | 65 ft | 24 kts | 241° |
| 2026-04-21 15:08 | 14.50232 | 121.00535 | 64 ft | 22 kts | 240° |
| 2026-04-21 15:08 | 14.50153 | 121.00394 | 62 ft | 24 kts | 240° |
| 2026-04-21 15:08 | 14.50069 | 121.00243 | 63 ft | 25 kts | 240° |
| 2026-04-21 15:09 | 14.50027 | 121.00165 | 63 ft | 18 kts | 240° |
| 2026-04-21 15:09 | 14.49965 | 121.00056 | 62 ft | 18 kts | 240° |
| 2026-04-21 15:09 | 14.49922 | 120.99981 | 64 ft | 10 kts | 233° |
| 2026-04-21 15:09 | 14.49881 | 120.99965 | 69 ft | 0 kts | 175° |
| 2026-04-21 15:12 | 14.49841 | 120.99983 | 66 ft | 16 kts | 150° |
| 2026-04-21 15:12 | 14.49825 | 121.00074 | 69 ft | 16 kts | 36° |
| 2026-04-21 15:12 | 14.49889 | 121.00194 | 67 ft | 32 kts | 59° |
| 2026-04-21 15:13 | 14.50125 | 121.00620 | 61 ft | 100 kts | 60° |
| 2026-04-21 15:13 | 14.50562 | 121.01402 | 68 ft | 150 kts | 60° |
| 2026-04-21 15:13 | 14.51090 | 121.02361 | 581 ft | 150 kts | 63° |
| 2026-04-21 15:13 | 14.51609 | 121.03322 | 1084 ft | 157 kts | 63° |
| 2026-04-21 15:14 | 14.52133 | 121.04318 | 1671 ft | 158 kts | 63° |
| 2026-04-21 15:14 | 14.52623 | 121.05284 | 2364 ft | 141 kts | 66° |
| 2026-04-21 15:14 | 14.53077 | 121.06180 | 2707 ft | 150 kts | 61° |
| 2026-04-21 15:14 | 14.53643 | 121.07120 | 3247 ft | 155 kts | 60° |
| 2026-04-21 15:15 | 14.54238 | 121.08122 | 3706 ft | 174 kts | 64° |
| 2026-04-21 15:15 | 14.54428 | 121.09404 | 4105 ft | 194 kts | 101° |
| 2026-04-21 15:15 | 14.53782 | 121.10717 | 4450 ft | 221 kts | 129° |
| 2026-04-21 15:15 | 14.52630 | 121.11863 | 4908 ft | 244 kts | 138° |
| 2026-04-21 15:16 | 14.51274 | 121.13049 | 5405 ft | 265 kts | 138° |
| 2026-04-21 15:16 | 14.49872 | 121.14340 | 6184 ft | 273 kts | 136° |
| 2026-04-21 15:16 | 14.48495 | 121.15703 | 7034 ft | 276 kts | 134° |
| 2026-04-21 15:16 | 14.47129 | 121.17117 | 7900 ft | 279 kts | 133° |
| 2026-04-21 15:17 | 14.45767 | 121.18559 | 8777 ft | 282 kts | 133° |
| 2026-04-21 15:17 | 14.44393 | 121.20024 | 9633 ft | 286 kts | 132° |
| 2026-04-21 15:17 | 14.42996 | 121.21516 | 10371 ft | 293 kts | 132° |
| 2026-04-21 15:17 | 14.41525 | 121.23089 | 10627 ft | 317 kts | 132° |
| 2026-04-21 15:18 | 14.39937 | 121.24784 | 10863 ft | 338 kts | 133° |
| 2026-04-21 15:18 | 14.38282 | 121.26545 | 11486 ft | 344 kts | 133° |
| 2026-04-21 15:18 | 14.36602 | 121.28329 | 12207 ft | 348 kts | 133° |
| 2026-04-21 15:18 | 14.34908 | 121.30129 | 12896 ft | 352 kts | 133° |
| 2026-04-21 15:19 | 14.33192 | 121.31955 | 13579 ft | 357 kts | 133° |
| 2026-04-21 15:19 | 14.31469 | 121.33787 | 14157 ft | 362 kts | 133° |
| 2026-04-21 15:19 | 14.29710 | 121.35657 | 14780 ft | 365 kts | 133° |
| 2026-04-21 15:19 | 14.27935 | 121.37545 | 15349 ft | 369 kts | 134° |
| 2026-04-21 15:20 | 14.26134 | 121.39458 | 15911 ft | 374 kts | 134° |
| 2026-04-21 15:20 | 14.24316 | 121.41389 | 16470 ft | 378 kts | 134° |
| 2026-04-21 15:20 | 14.22475 | 121.43345 | 17009 ft | 382 kts | 134° |
| 2026-04-21 15:20 | 14.20614 | 121.45320 | 17548 ft | 386 kts | 134° |
| 2026-04-21 15:21 | 14.18732 | 121.47317 | 18088 ft | 389 kts | 134° |
| 2026-04-21 15:21 | 14.16836 | 121.49328 | 18550 ft | 394 kts | 134° |
| 2026-04-21 15:21 | 14.14920 | 121.51361 | 19031 ft | 396 kts | 135° |
| 2026-04-21 15:21 | 14.12997 | 121.53401 | 19517 ft | 398 kts | 135° |
| 2026-04-21 15:22 | 14.11054 | 121.55461 | 19978 ft | 401 kts | 135° |
| 2026-04-21 15:22 | 14.09123 | 121.57508 | 20435 ft | 404 kts | 136° |
| 2026-04-21 15:22 | 14.07159 | 121.59590 | 20897 ft | 407 kts | 136° |
| 2026-04-21 15:22 | 14.05176 | 121.61693 | 21351 ft | 410 kts | 136° |
| 2026-04-21 15:23 | 14.03181 | 121.63806 | 21809 ft | 413 kts | 136° |
| 2026-04-21 15:23 | 14.01169 | 121.65937 | 22256 ft | 416 kts | 136° |
| 2026-04-21 15:23 | 13.99148 | 121.68074 | 22687 ft | 419 kts | 136° |
| 2026-04-21 15:23 | 13.97105 | 121.70234 | 23124 ft | 422 kts | 136° |
| 2026-04-21 15:24 | 13.95049 | 121.72406 | 23546 ft | 425 kts | 136° |
| 2026-04-21 15:24 | 13.92980 | 121.74594 | 23888 ft | 427 kts | 136° |
| 2026-04-21 15:24 | 13.90900 | 121.76792 | 24251 ft | 430 kts | 136° |
| 2026-04-21 15:24 | 13.88805 | 121.79005 | 24607 ft | 432 kts | 136° |
| 2026-04-21 15:25 | 13.86707 | 121.81233 | 24956 ft | 435 kts | 134° |
| 2026-04-21 15:25 | 13.84732 | 121.83608 | 25311 ft | 438 kts | 131° |
| 2026-04-21 15:25 | 13.82793 | 121.85993 | 25641 ft | 441 kts | 132° |
| 2026-04-21 15:25 | 13.80819 | 121.88417 | 25979 ft | 443 kts | 132° |
| 2026-04-21 15:26 | 13.78833 | 121.90853 | 26315 ft | 445 kts | 132° |
| 2026-04-21 15:26 | 13.76840 | 121.93296 | 26649 ft | 447 kts | 132° |
| 2026-04-21 15:26 | 13.74834 | 121.95753 | 26969 ft | 450 kts | 132° |
| 2026-04-21 15:26 | 13.72815 | 121.98224 | 27288 ft | 452 kts | 132° |
| 2026-04-21 15:27 | 13.70787 | 122.00707 | 27611 ft | 454 kts | 132° |
| 2026-04-21 15:27 | 13.68749 | 122.03200 | 27909 ft | 457 kts | 132° |
| 2026-04-21 15:27 | 13.66700 | 122.05708 | 28231 ft | 458 kts | 132° |
| 2026-04-21 15:27 | 13.64643 | 122.08223 | 28529 ft | 461 kts | 132° |
| 2026-04-21 15:28 | 13.62579 | 122.10747 | 28822 ft | 463 kts | 132° |
| 2026-04-21 15:28 | 13.60499 | 122.13289 | 29117 ft | 465 kts | 132° |
| 2026-04-21 15:28 | 13.58412 | 122.15839 | 29396 ft | 467 kts | 132° |
| 2026-04-21 15:28 | 13.56317 | 122.18399 | 29683 ft | 469 kts | 132° |
| 2026-04-21 15:29 | 13.54207 | 122.20975 | 29975 ft | 471 kts | 132° |
| 2026-04-21 15:29 | 13.52094 | 122.23554 | 30234 ft | 473 kts | 132° |
| 2026-04-21 15:29 | 13.50006 | 122.26102 | 30486 ft | 475 kts | 132° |
| 2026-04-21 15:29 | 13.47839 | 122.28745 | 30756 ft | 477 kts | 132° |
| 2026-04-21 15:30 | 13.45696 | 122.31358 | 31012 ft | 479 kts | 131° |
| 2026-04-21 15:30 | 13.43544 | 122.33982 | 31340 ft | 479 kts | 131° |
| 2026-04-21 15:30 | 13.41427 | 122.36563 | 31689 ft | 478 kts | 131° |
| 2026-04-21 15:30 | 13.39279 | 122.39181 | 32037 ft | 477 kts | 131° |
| 2026-04-21 15:31 | 13.37146 | 122.41780 | 32373 ft | 477 kts | 131° |
| 2026-04-21 15:31 | 13.35006 | 122.44387 | 32699 ft | 476 kts | 131° |
| 2026-04-21 15:31 | 13.32870 | 122.46987 | 33022 ft | 476 kts | 131° |
| 2026-04-21 15:31 | 13.30740 | 122.49580 | 33333 ft | 475 kts | 131° |
| 2026-04-21 15:32 | 13.28602 | 122.52182 | 33646 ft | 475 kts | 131° |
| 2026-04-21 15:32 | 13.26472 | 122.54772 | 33942 ft | 475 kts | 131° |
| 2026-04-21 15:32 | 13.24342 | 122.57362 | 34206 ft | 474 kts | 131° |
| 2026-04-21 15:32 | 13.22217 | 122.59946 | 34472 ft | 473 kts | 131° |
| 2026-04-21 15:33 | 13.20118 | 122.62498 | 34716 ft | 473 kts | 131° |
| 2026-04-21 15:33 | 13.18000 | 122.65072 | 34872 ft | 472 kts | 131° |
| 2026-04-21 15:33 | 13.13769 | 122.70211 | 34938 ft | 471 kts | 132° |
| 2026-04-21 15:34 | 13.09544 | 122.75339 | 34938 ft | 471 kts | 132° |
| 2026-04-21 15:34 | 13.05315 | 122.80469 | 34942 ft | 471 kts | 132° |
| 2026-04-21 15:35 | 13.01086 | 122.85597 | 34940 ft | 470 kts | 132° |
| 2026-04-21 15:35 | 12.96857 | 122.90723 | 34938 ft | 470 kts | 132° |
| 2026-04-21 15:36 | 12.92653 | 122.95814 | 34939 ft | 470 kts | 132° |
| 2026-04-21 15:36 | 12.88423 | 123.00934 | 34940 ft | 470 kts | 132° |
| 2026-04-21 15:37 | 12.84198 | 123.06044 | 34939 ft | 470 kts | 132° |
| 2026-04-21 15:37 | 12.79970 | 123.11157 | 34942 ft | 470 kts | 132° |
| 2026-04-21 15:38 | 12.75743 | 123.16265 | 34938 ft | 470 kts | 132° |
| 2026-04-21 15:38 | 12.71509 | 123.21379 | 34936 ft | 470 kts | 132° |
| 2026-04-21 15:39 | 12.67307 | 123.26450 | 34936 ft | 469 kts | 132° |
| 2026-04-21 15:39 | 12.63079 | 123.31551 | 34940 ft | 469 kts | 132° |
| 2026-04-21 15:40 | 12.58848 | 123.36652 | 34939 ft | 469 kts | 132° |
| 2026-04-21 15:40 | 12.54616 | 123.41752 | 34937 ft | 469 kts | 132° |
| 2026-04-21 15:41 | 12.50420 | 123.46805 | 34939 ft | 469 kts | 132° |
| 2026-04-21 15:41 | 12.46195 | 123.51891 | 34939 ft | 469 kts | 132° |
| 2026-04-21 15:42 | 12.41971 | 123.56971 | 34939 ft | 468 kts | 132° |
| 2026-04-21 15:42 | 12.37747 | 123.62051 | 34938 ft | 468 kts | 132° |
| 2026-04-21 15:43 | 12.33561 | 123.67155 | 34939 ft | 468 kts | 131° |
| 2026-04-21 15:43 | 12.29417 | 123.72301 | 34936 ft | 468 kts | 131° |
| 2026-04-21 15:44 | 12.25272 | 123.77430 | 34768 ft | 468 kts | 131° |
| 2026-04-21 15:44 | 12.23192 | 123.79999 | 34527 ft | 468 kts | 131° |
| 2026-04-21 15:44 | 12.21111 | 123.82565 | 33975 ft | 471 kts | 131° |
| 2026-04-21 15:45 | 12.19035 | 123.85124 | 33113 ft | 476 kts | 131° |
| 2026-04-21 15:45 | 12.16912 | 123.87739 | 32138 ft | 480 kts | 131° |
| 2026-04-21 15:45 | 12.14779 | 123.90369 | 31324 ft | 481 kts | 131° |
| 2026-04-21 15:45 | 12.12639 | 123.93007 | 30639 ft | 479 kts | 131° |
| 2026-04-21 15:46 | 12.10526 | 123.95611 | 30161 ft | 472 kts | 131° |
| 2026-04-21 15:46 | 12.08435 | 123.98187 | 29479 ft | 468 kts | 131° |
| 2026-04-21 15:46 | 12.06370 | 124.00731 | 28927 ft | 461 kts | 131° |
| 2026-04-21 15:46 | 12.04335 | 124.03237 | 28343 ft | 456 kts | 131° |
| 2026-04-21 15:47 | 12.02319 | 124.05718 | 27763 ft | 451 kts | 131° |
| 2026-04-21 15:47 | 12.00323 | 124.08174 | 27190 ft | 446 kts | 131° |
| 2026-04-21 15:47 | 11.98350 | 124.10601 | 26613 ft | 442 kts | 131° |
| 2026-04-21 15:47 | 11.96394 | 124.13007 | 26003 ft | 439 kts | 131° |
| 2026-04-21 15:48 | 11.94450 | 124.15397 | 25468 ft | 435 kts | 131° |
| 2026-04-21 15:48 | 11.92518 | 124.17772 | 24908 ft | 432 kts | 131° |
| 2026-04-21 15:48 | 11.90603 | 124.20124 | 24343 ft | 429 kts | 131° |
| 2026-04-21 15:48 | 11.88697 | 124.22465 | 23773 ft | 427 kts | 131° |
| 2026-04-21 15:49 | 11.86826 | 124.24764 | 23158 ft | 425 kts | 131° |
| 2026-04-21 15:49 | 11.84944 | 124.27074 | 22620 ft | 420 kts | 131° |
| 2026-04-21 15:49 | 11.83090 | 124.29351 | 22067 ft | 415 kts | 131° |
| 2026-04-21 15:49 | 11.81247 | 124.31613 | 21509 ft | 411 kts | 131° |
| 2026-04-21 15:50 | 11.79423 | 124.33850 | 20962 ft | 408 kts | 131° |
| 2026-04-21 15:50 | 11.77617 | 124.36065 | 20411 ft | 404 kts | 130° |
| 2026-04-21 15:50 | 11.75819 | 124.38269 | 19847 ft | 402 kts | 130° |
| 2026-04-21 15:50 | 11.74030 | 124.40464 | 19268 ft | 401 kts | 130° |
| 2026-04-21 15:51 | 11.72250 | 124.42645 | 18729 ft | 399 kts | 130° |
| 2026-04-21 15:51 | 11.70483 | 124.44810 | 18175 ft | 397 kts | 130° |
| 2026-04-21 15:51 | 11.68723 | 124.46967 | 17627 ft | 393 kts | 130° |
| 2026-04-21 15:51 | 11.67004 | 124.49074 | 17107 ft | 389 kts | 130° |
| 2026-04-21 15:52 | 11.65275 | 124.51193 | 16567 ft | 386 kts | 130° |
| 2026-04-21 15:52 | 11.63562 | 124.53292 | 16036 ft | 384 kts | 130° |
| 2026-04-21 15:52 | 11.62410 | 124.54704 | 15681 ft | 382 kts | 131° |
| 2026-04-21 15:52 | 11.60164 | 124.57453 | 14976 ft | 379 kts | 131° |
| 2026-04-21 15:53 | 11.59046 | 124.58822 | 14616 ft | 378 kts | 131° |
| 2026-04-21 15:53 | 11.57367 | 124.60877 | 14077 ft | 377 kts | 131° |
| 2026-04-21 15:53 | 11.55698 | 124.62918 | 13536 ft | 375 kts | 131° |
| 2026-04-21 15:53 | 11.54039 | 124.64947 | 13041 ft | 370 kts | 131° |
| 2026-04-21 15:54 | 11.52400 | 124.66949 | 12532 ft | 366 kts | 131° |
| 2026-04-21 15:54 | 11.50759 | 124.68911 | 12148 ft | 359 kts | 134° |
| 2026-04-21 15:54 | 11.48934 | 124.70631 | 11680 ft | 354 kts | 143° |
| 2026-04-21 15:54 | 11.46926 | 124.72066 | 11189 ft | 351 kts | 147° |
| 2026-04-21 15:55 | 11.44908 | 124.73450 | 10703 ft | 349 kts | 146° |
| 2026-04-21 15:55 | 11.42914 | 124.74829 | 10410 ft | 340 kts | 146° |
| 2026-04-21 15:55 | 11.40994 | 124.76162 | 10286 ft | 327 kts | 146° |
| 2026-04-21 15:55 | 11.39157 | 124.77438 | 10177 ft | 313 kts | 146° |
| 2026-04-21 15:56 | 11.37406 | 124.78654 | 9995 ft | 304 kts | 146° |
| 2026-04-21 15:56 | 11.35671 | 124.79857 | 9723 ft | 297 kts | 146° |
| 2026-04-21 15:56 | 11.33979 | 124.81030 | 9405 ft | 293 kts | 146° |
| 2026-04-21 15:56 | 11.32314 | 124.82182 | 9202 ft | 284 kts | 146° |
| 2026-04-21 15:57 | 11.30716 | 124.83289 | 9100 ft | 272 kts | 146° |
| 2026-04-21 15:57 | 11.29185 | 124.84350 | 9000 ft | 260 kts | 145° |
| 2026-04-21 15:57 | 11.27717 | 124.85367 | 8794 ft | 253 kts | 145° |
| 2026-04-21 15:57 | 11.26266 | 124.86373 | 8484 ft | 252 kts | 145° |
| 2026-04-21 15:58 | 11.25003 | 124.87577 | 8141 ft | 249 kts | 121° |
| 2026-04-21 15:58 | 11.24484 | 124.89222 | 7893 ft | 241 kts | 90° |
| 2026-04-21 15:58 | 11.24864 | 124.90844 | 7751 ft | 240 kts | 60° |
| 2026-04-21 15:58 | 11.26026 | 124.92067 | 7510 ft | 243 kts | 30° |
| 2026-04-21 15:59 | 11.27608 | 124.92543 | 7287 ft | 241 kts | 5° |
| 2026-04-21 15:59 | 11.29292 | 124.92459 | 7056 ft | 244 kts | 350° |
| 2026-04-21 15:59 | 11.30819 | 124.91744 | 6813 ft | 244 kts | 319° |
| 2026-04-21 15:59 | 11.31783 | 124.90320 | 6589 ft | 250 kts | 288° |
| 2026-04-21 16:00 | 11.31912 | 124.88572 | 6366 ft | 250 kts | 257° |
| 2026-04-21 16:00 | 11.31160 | 124.87002 | 6123 ft | 248 kts | 225° |
| 2026-04-21 16:00 | 11.29771 | 124.86049 | 5838 ft | 243 kts | 194° |
| 2026-04-21 16:00 | 11.28136 | 124.85904 | 5597 ft | 235 kts | 166° |
| 2026-04-21 16:01 | 11.26540 | 124.86275 | 5355 ft | 235 kts | 163° |
| 2026-04-21 16:01 | 11.24955 | 124.86642 | 5184 ft | 238 kts | 164° |
| 2026-04-21 16:01 | 11.23199 | 124.87046 | 5086 ft | 270 kts | 164° |
| 2026-04-21 16:01 | 11.21391 | 124.87450 | 4962 ft | 261 kts | 165° |
| 2026-04-21 16:02 | 11.19630 | 124.87836 | 4842 ft | 260 kts | 165° |
| 2026-04-21 16:02 | 11.17852 | 124.88227 | 4725 ft | 260 kts | 165° |
| 2026-04-21 16:02 | 11.16086 | 124.88616 | 4599 ft | 258 kts | 165° |
| 2026-04-21 16:02 | 11.14329 | 124.89004 | 4475 ft | 258 kts | 164° |
| 2026-04-21 16:03 | 11.12576 | 124.89392 | 4352 ft | 257 kts | 164° |
| 2026-04-21 16:03 | 11.10829 | 124.89779 | 4230 ft | 257 kts | 164° |
| 2026-04-21 16:03 | 11.09080 | 124.90167 | 4106 ft | 257 kts | 164° |
| 2026-04-21 16:03 | 11.07334 | 124.90554 | 3978 ft | 256 kts | 164° |
| 2026-04-21 16:04 | 11.05620 | 124.91026 | 3848 ft | 253 kts | 150° |
| 2026-04-21 16:04 | 11.04283 | 124.92124 | 3601 ft | 247 kts | 123° |
| 2026-04-21 16:04 | 11.03660 | 124.93691 | 3293 ft | 242 kts | 96° |
| 2026-04-21 16:04 | 11.03549 | 124.95418 | 2978 ft | 240 kts | 93° |
| 2026-04-21 16:05 | 11.03456 | 124.97088 | 2710 ft | 237 kts | 92° |
| 2026-04-21 16:05 | 11.03360 | 124.98761 | 2608 ft | 236 kts | 90° |
| 2026-04-21 16:05 | 11.03719 | 125.00332 | 2499 ft | 226 kts | 60° |
| 2026-04-21 16:05 | 11.04820 | 125.01409 | 2398 ft | 220 kts | 28° |
| 2026-04-21 16:06 | 11.06304 | 125.01717 | 2306 ft | 221 kts | 6° |
| 2026-04-21 16:06 | 11.07820 | 125.01789 | 2162 ft | 214 kts | 6° |
| 2026-04-21 16:06 | 11.09272 | 125.01865 | 2021 ft | 206 kts | 7° |
| 2026-04-21 16:06 | 11.10633 | 125.01945 | 1900 ft | 186 kts | 7° |
| 2026-04-21 16:07 | 11.11855 | 125.02023 | 1774 ft | 164 kts | 8° |
| 2026-04-21 16:07 | 11.12909 | 125.02093 | 1771 ft | 142 kts | 8° |
| 2026-04-21 16:07 | 11.13878 | 125.02163 | 1769 ft | 138 kts | 9° |
| 2026-04-21 16:07 | 11.14832 | 125.02234 | 1758 ft | 138 kts | 9° |
| 2026-04-21 16:08 | 11.16736 | 125.02372 | 1381 ft | 136 kts | 7° |
| 2026-04-21 16:08 | 11.17681 | 125.02438 | 1129 ft | 136 kts | 7° |
| 2026-04-21 16:08 | 11.18633 | 125.02505 | 865 ft | 137 kts | 6° |
| 2026-04-21 16:09 | 11.19591 | 125.02569 | 513 ft | 139 kts | 4° |
| 2026-04-21 16:09 | 11.20535 | 125.02626 | 285 ft | 132 kts | 4° |
| 2026-04-21 16:09 | 11.21466 | 125.02686 | 125 ft | 136 kts | 5° |
| 2026-04-21 16:09 | 11.22389 | 125.02747 | 17 ft | 128 kts | 3° |
| 2026-04-21 16:10 | 11.23134 | 125.02800 | 14 ft | 67 kts | 4° |
| 2026-04-21 16:10 | 11.23452 | 125.02820 | 15 ft | 31 kts | 4° |
| 2026-04-21 16:10 | 11.23605 | 125.02830 | 17 ft | 12 kts | 4° |
| 2026-04-21 16:10 | 11.23680 | 125.02807 | 17 ft | 9 kts | 347° |
| 2026-04-21 16:11 | 11.23692 | 125.02830 | 17 ft | 3 kts | 126° |
| 2026-04-21 16:11 | 11.23661 | 125.02832 | 17 ft | 9 kts | 182° |
| 2026-04-21 16:11 | 11.23570 | 125.02827 | 17 ft | 17 kts | 183° |
| 2026-04-21 16:11 | 11.23429 | 125.02818 | 17 ft | 22 kts | 184° |
| 2026-04-21 16:12 | 11.23264 | 125.02808 | 15 ft | 25 kts | 184° |
| 2026-04-21 16:12 | 11.23086 | 125.02795 | 15 ft | 26 kts | 184° |
| 2026-04-21 16:12 | 11.22897 | 125.02783 | 14 ft | 28 kts | 183° |
| 2026-04-21 16:12 | 11.22784 | 125.02776 | 17 ft | 12 kts | 184° |
| 2026-04-21 16:13 | 11.22695 | 125.02769 | 16 ft | 14 kts | 184° |
| 2026-04-21 16:13 | 11.22591 | 125.02762 | 18 ft | 10 kts | 184° |
| 2026-04-21 16:13 | 11.22574 | 125.02757 | 19 ft | 6 kts | 207° |
| 2026-04-21 16:13 | 11.22580 | 125.02697 | 18 ft | 9 kts | 314° |
| 2026-04-21 16:14 | 11.22622 | 125.02675 | 16 ft | 0 kts | 329° |
| 2026-04-21 16:14 | 11.22625 | 125.02672 | 16 ft | 2 kts | 320° |
| 2026-04-21 16:14 | 11.22631 | 125.02664 | 16 ft | 7 kts | 309° |
| 2026-04-21 16:14 | 11.22636 | 125.02659 | 16 ft | 0 kts | 309° |
| 2026-04-21 16:15 | 11.22640 | 125.02652 | 17 ft | 0 kts | 307° |